Time;durP1;ratioP1;P1;durP2;ratioP2;P2;SDS_P1;SDS_P2;PMS_P1;PMS_P2;Temp;Humidity;BMP_temperature;BMP_pressure;BME280_temperature;BME280_humidity;BME280_pressure;Samples;Min_cycle;Max_cycle;Signal;HPM_P1;HPM_P2
2023/08/08 00:04:19;;;;;;;8.20;6.75;;;;;;;;;;10214128;28;20061;-72
2023/08/08 00:09:15;;;;;;;9.43;7.20;;;;;;;;;;10273133;28;20060;-72
2023/08/08 00:14:11;;;;;;;8.18;6.97;;;;;;;;;;10223179;28;20053;-72
2023/08/08 00:19:08;;;;;;;8.95;7.55;;;;;;;;;;10258266;28;20054;-72
2023/08/08 00:24:04;;;;;;;11.25;8.23;;;;;;;;;;10191935;28;20515;-71
2023/08/08 00:29:00;;;;;;;10.25;7.88;;;;;;;;;;10239951;28;20496;-72
2023/08/08 00:33:57;;;;;;;11.90;8.57;;;;;;;;;;10207787;28;20049;-72
2023/08/08 00:38:53;;;;;;;10.38;9.07;;;;;;;;;;10213156;28;20085;-72
2023/08/08 00:43:50;;;;;;;10.57;9.38;;;;;;;;;;10201258;28;20053;-72
2023/08/08 00:48:46;;;;;;;9.30;8.40;;;;;;;;;;10232288;28;20504;-71
2023/08/08 00:53:43;;;;;;;9.23;8.40;;;;;;;;;;10234575;28;20045;-72
2023/08/08 00:58:40;;;;;;;10.48;8.68;;;;;;;;;;10272385;28;20063;-72
2023/08/08 01:03:36;;;;;;;12.40;8.73;;;;;;;;;;10251497;28;20044;-71
2023/08/08 01:08:39;;;;;;;9.02;8.18;;;;;;;;;;10279099;28;20115;-70
2023/08/08 01:13:36;;;;;;;9.23;8.52;;;;;;;;;;10217232;28;20052;-71
2023/08/08 01:18:33;;;;;;;9.20;8.40;;;;;;;;;;10273678;28;20076;-71
2023/08/08 01:23:48;;;;;;;9.85;8.85;;;;;;;;;;10205858;28;20057;-71
2023/08/08 01:28:44;;;;;;;9.55;8.50;;;;;;;;;;10255346;28;20049;-70
2023/08/08 01:33:41;;;;;;;9.10;8.40;;;;;;;;;;10208483;28;20094;-71
2023/08/08 01:38:40;;;;;;;11.00;8.48;;;;;;;;;;10241104;28;20096;-71
2023/08/08 01:43:38;;;;;;;9.95;8.90;;;;;;;;;;10207288;28;20052;-71
2023/08/08 01:48:36;;;;;;;8.40;7.63;;;;;;;;;;10237416;28;20042;-71
2023/08/08 01:53:32;;;;;;;9.30;8.35;;;;;;;;;;10205089;28;20057;-71
2023/08/08 01:58:28;;;;;;;8.45;7.65;;;;;;;;;;10278327;28;20097;-70
2023/08/08 02:03:25;;;;;;;8.90;7.97;;;;;;;;;;10255981;28;20071;-70
2023/08/08 02:08:24;;;;;;;10.18;8.20;;;;;;;;;;10277846;28;20063;-70
2023/08/08 02:13:21;;;;;;;8.73;7.65;;;;;;;;;;10245070;28;20466;-71
2023/08/08 02:18:17;;;;;;;8.65;7.80;;;;;;;;;;10266243;28;20535;-71
2023/08/08 02:23:13;;;;;;;8.20;7.30;;;;;;;;;;10199531;28;20056;-70
2023/08/08 02:28:10;;;;;;;11.13;7.22;;;;;;;;;;10223440;28;20077;-71
2023/08/08 02:33:06;;;;;;;7.03;6.32;;;;;;;;;;10197629;28;20204;-71
2023/08/08 02:38:02;;;;;;;8.02;7.20;;;;;;;;;;10205676;28;20076;-70
2023/08/08 02:43:02;;;;;;;7.72;6.93;;;;;;;;;;10196243;28;20054;-71
2023/08/08 02:47:58;;;;;;;6.95;6.32;;;;;;;;;;10195906;28;20397;-71
2023/08/08 02:52:55;;;;;;;8.57;7.68;;;;;;;;;;10195668;28;20475;-69
2023/08/08 02:57:52;;;;;;;8.32;7.38;;;;;;;;;;10274382;28;20679;-71
2023/08/08 03:02:48;;;;;;;7.85;7.15;;;;;;;;;;10245671;28;20431;-71
2023/08/08 03:07:44;;;;;;;7.47;6.88;;;;;;;;;;10272290;28;20583;-71
2023/08/08 03:12:41;;;;;;;8.30;7.28;;;;;;;;;;10222923;28;20492;-71
2023/08/08 03:17:37;;;;;;;9.35;6.80;;;;;;;;;;10269696;28;20421;-71
2023/08/08 03:22:34;;;;;;;8.13;7.28;;;;;;;;;;10214734;28;20042;-71
2023/08/08 03:27:30;;;;;;;8.80;7.38;;;;;;;;;;10267134;28;20045;-71
2023/08/08 03:32:27;;;;;;;9.25;7.47;;;;;;;;;;10233748;28;20099;-71
2023/08/08 03:37:24;;;;;;;7.85;7.10;;;;;;;;;;10244298;28;20053;-71
2023/08/08 03:42:20;;;;;;;9.38;7.35;;;;;;;;;;10194536;28;20049;-71
2023/08/08 03:47:16;;;;;;;8.80;7.85;;;;;;;;;;10213984;28;20112;-72
2023/08/08 03:52:15;;;;;;;10.13;8.20;;;;;;;;;;10193900;28;20085;-71
2023/08/08 03:57:12;;;;;;;11.45;8.02;;;;;;;;;;10261337;28;20515;-73
2023/08/08 04:02:09;;;;;;;9.05;8.25;;;;;;;;;;10274356;28;20049;-72
2023/08/08 04:07:05;;;;;;;8.55;7.55;;;;;;;;;;10269761;28;20542;-73
2023/08/08 04:12:02;;;;;;;8.40;7.53;;;;;;;;;;10228987;28;20467;-71
2023/08/08 04:16:58;;;;;;;8.98;8.07;;;;;;;;;;10257549;28;20052;-72
2023/08/08 04:21:59;;;;;;;8.85;7.60;;;;;;;;;;10270316;28;20045;-72
2023/08/08 04:26:56;;;;;;;10.02;8.05;;;;;;;;;;10256048;28;20083;-71
2023/08/08 04:31:53;;;;;;;8.82;7.90;;;;;;;;;;10264617;28;20338;-71
2023/08/08 04:36:49;;;;;;;7.70;7.05;;;;;;;;;;10257041;28;20096;-71
2023/08/08 04:41:45;;;;;;;8.55;7.72;;;;;;;;;;10241705;28;20060;-71
2023/08/08 04:46:44;;;;;;;8.55;7.75;;;;;;;;;;10270868;28;20059;-71
2023/08/08 04:51:40;;;;;;;7.30;6.38;;;;;;;;;;10240759;28;20045;-71
2023/08/08 04:56:36;;;;;;;9.38;7.25;;;;;;;;;;10237620;28;20058;-71
2023/08/08 05:01:33;;;;;;;7.18;6.32;;;;;;;;;;10200696;28;20486;-71
2023/08/08 05:06:29;;;;;;;7.30;6.65;;;;;;;;;;10203568;28;20081;-72
2023/08/08 05:11:25;;;;;;;7.70;6.88;;;;;;;;;;10200075;28;20053;-71
2023/08/08 05:16:22;;;;;;;7.50;6.90;;;;;;;;;;10226363;28;20072;-72
2023/08/08 05:21:19;;;;;;;9.25;7.20;;;;;;;;;;10239427;28;20115;-71
2023/08/08 05:31:25;;;;;;;7.10;6.50;;;;;;;;;;10237079;28;20128;-72
2023/08/08 05:36:21;;;;;;;8.10;6.95;;;;;;;;;;10259286;28;20427;-72
2023/08/08 05:41:18;;;;;;;7.50;6.47;;;;;;;;;;10260155;28;20045;-72
2023/08/08 05:46:14;;;;;;;7.22;6.55;;;;;;;;;;10232317;28;20490;-72
2023/08/08 05:51:10;;;;;;;7.00;6.28;;;;;;;;;;10271024;28;20054;-71
2023/08/08 05:56:08;;;;;;;7.80;6.18;;;;;;;;;;10247795;28;20056;-72
2023/08/08 06:01:09;;;;;;;7.88;6.30;;;;;;;;;;10232200;28;20054;-71
2023/08/08 06:06:06;;;;;;;7.95;6.25;;;;;;;;;;10246998;28;20052;-72
2023/08/08 06:11:02;;;;;;;9.02;6.30;;;;;;;;;;10239913;28;20061;-71
2023/08/08 06:16:01;;;;;;;7.22;6.57;;;;;;;;;;10252254;28;20408;-71
2023/08/08 06:20:57;;;;;;;6.90;6.30;;;;;;;;;;10197456;28;20054;-72
2023/08/08 06:25:53;;;;;;;7.95;7.30;;;;;;;;;;10235091;28;20565;-71
2023/08/08 06:30:50;;;;;;;9.38;6.90;;;;;;;;;;10196395;28;20515;-72
2023/08/08 06:35:46;;;;;;;7.20;6.55;;;;;;;;;;10228408;28;20522;-71
2023/08/08 06:40:42;;;;;;;7.07;6.50;;;;;;;;;;10236487;28;20049;-71
2023/08/08 06:45:39;;;;;;;8.70;7.20;;;;;;;;;;10252472;28;20458;-72
2023/08/08 06:50:35;;;;;;;6.45;5.85;;;;;;;;;;10277224;28;20045;-71
2023/08/08 06:55:31;;;;;;;8.50;6.57;;;;;;;;;;10267978;28;20753;-71
2023/08/08 07:00:28;;;;;;;6.65;5.97;;;;;;;;;;10275631;28;20049;-72
2023/08/08 07:05:25;;;;;;;6.53;5.88;;;;;;;;;;10244766;28;20045;-72
2023/08/08 07:10:22;;;;;;;6.28;5.68;;;;;;;;;;10271299;28;20057;-71
2023/08/08 07:15:19;;;;;;;6.68;6.10;;;;;;;;;;10253224;28;20049;-71
2023/08/08 07:20:17;;;;;;;7.63;6.03;;;;;;;;;;10265173;28;20439;-72
2023/08/08 07:25:16;;;;;;;7.13;5.70;;;;;;;;;;10231162;28;20049;-71
2023/08/08 07:30:13;;;;;;;6.10;5.60;;;;;;;;;;10249608;28;20459;-71
2023/08/08 07:35:10;;;;;;;6.43;5.72;;;;;;;;;;10248114;28;20069;-71
2023/08/08 07:40:17;;;;;;;6.07;5.18;;;;;;;;;;10234861;28;20056;-71
2023/08/08 07:45:14;;;;;;;5.82;5.22;;;;;;;;;;10222389;28;20061;-71
2023/08/08 07:50:11;;;;;;;6.15;5.47;;;;;;;;;;10194602;28;20061;-71
2023/08/08 07:55:08;;;;;;;9.65;5.68;;;;;;;;;;10227613;28;20057;-71
2023/08/08 08:00:09;;;;;;;9.00;6.95;;;;;;;;;;10268912;28;20053;-71
2023/08/08 08:05:13;;;;;;;9.70;5.90;;;;;;;;;;10250944;28;20052;-71
2023/08/08 08:10:10;;;;;;;10.23;6.93;;;;;;;;;;10234447;28;20053;-71
2023/08/08 08:15:07;;;;;;;6.82;6.30;;;;;;;;;;10232087;28;20053;-72
2023/08/08 08:20:05;;;;;;;12.95;6.68;;;;;;;;;;10222773;28;20133;-71
2023/08/08 08:25:02;;;;;;;10.90;6.93;;;;;;;;;;10175423;28;20050;-72
2023/08/08 08:29:58;;;;;;;9.35;6.70;;;;;;;;;;10193329;28;20436;-72
2023/08/08 08:34:54;;;;;;;7.57;6.95;;;;;;;;;;10193844;28;20596;-72
2023/08/08 08:39:50;;;;;;;7.20;6.50;;;;;;;;;;10192872;28;20054;-72
2023/08/08 08:44:47;;;;;;;6.30;5.40;;;;;;;;;;10232675;28;20049;-72
2023/08/08 08:49:45;;;;;;;8.57;6.75;;;;;;;;;;10255158;28;20099;-73
2023/08/08 08:54:42;;;;;;;6.00;5.40;;;;;;;;;;10226814;28;20518;-72
2023/08/08 08:59:38;;;;;;;6.05;5.40;;;;;;;;;;10256676;28;20050;-72
2023/08/08 09:04:35;;;;;;;5.97;5.47;;;;;;;;;;10244599;28;20053;-72
2023/08/08 09:09:31;;;;;;;6.82;5.30;;;;;;;;;;10196184;28;20046;-71
2023/08/08 09:14:28;;;;;;;6.28;5.68;;;;;;;;;;10200502;28;20046;-72
2023/08/08 09:19:24;;;;;;;7.47;6.70;;;;;;;;;;10191953;28;20050;-72
2023/08/08 09:24:21;;;;;;;6.60;5.68;;;;;;;;;;10218648;28;20049;-72
2023/08/08 09:29:17;;;;;;;6.13;5.53;;;;;;;;;;10279346;28;20080;-71
2023/08/08 09:34:14;;;;;;;6.68;6.07;;;;;;;;;;10252246;28;20044;-72
2023/08/08 09:39:10;;;;;;;6.55;5.85;;;;;;;;;;10278810;28;20049;-72
2023/08/08 09:44:07;;;;;;;6.25;5.65;;;;;;;;;;10224768;28;20045;-72
2023/08/08 09:49:04;;;;;;;8.00;5.82;;;;;;;;;;10278972;28;20041;-72
2023/08/08 09:54:01;;;;;;;6.90;6.15;;;;;;;;;;10221008;28;20084;-72
2023/08/08 09:58:58;;;;;;;7.88;7.20;;;;;;;;;;10265119;28;20422;-73
2023/08/08 10:03:57;;;;;;;8.52;7.70;;;;;;;;;;10245029;28;20133;-73
2023/08/08 10:08:53;;;;;;;9.20;8.30;;;;;;;;;;10236077;28;20046;-73
2023/08/08 10:13:52;;;;;;;8.90;8.07;;;;;;;;;;10210325;28;20092;-70
2023/08/08 10:18:59;;;;;;;9.93;8.93;;;;;;;;;;10250068;28;20404;-71
2023/08/08 10:24:03;;;;;;;8.90;8.00;;;;;;;;;;10222791;28;20045;-70
2023/08/08 10:29:00;;;;;;;8.98;7.85;;;;;;;;;;10196460;28;20050;-70
2023/08/08 10:34:06;;;;;;;9.65;8.55;;;;;;;;;;10201691;28;20050;-71
2023/08/08 10:39:03;;;;;;;9.68;8.85;;;;;;;;;;10196380;28;20053;-71
2023/08/08 10:43:59;;;;;;;8.35;7.55;;;;;;;;;;10211656;28;20079;-71
2023/08/08 10:48:59;;;;;;;11.40;7.50;;;;;;;;;;10276403;28;20099;-71
2023/08/08 10:53:55;;;;;;;7.93;7.18;;;;;;;;;;10221887;28;20418;-71
2023/08/08 10:58:52;;;;;;;8.50;7.60;;;;;;;;;;10267794;28;20045;-71
2023/08/08 11:03:52;;;;;;;17.58;7.88;;;;;;;;;;10242005;28;20053;-71
2023/08/08 11:08:49;;;;;;;8.15;7.35;;;;;;;;;;10274904;22;20128;-71
2023/08/08 11:13:45;;;;;;;7.90;7.20;;;;;;;;;;10235549;28;20415;-71
2023/08/08 11:23:53;;;;;;;7.90;7.15;;;;;;;;;;10392286;23;20508;-72
2023/08/08 11:28:50;;;;;;;7.72;7.03;;;;;;;;;;10177060;28;20061;-72
2023/08/08 11:33:51;;;;;;;8.27;6.72;;;;;;;;;;10200528;28;20038;-71
2023/08/08 11:38:49;;;;;;;8.47;7.67;;;;;;;;;;10219636;28;20112;-71
2023/08/08 11:43:46;;;;;;;8.55;7.28;;;;;;;;;;10182016;28;20415;-71
2023/08/08 11:54:06;;;;;;;6.68;6.00;;;;;;;;;;9267830;26;20056;-71
2023/08/08 11:59:02;;;;;;;6.85;6.25;;;;;;;;;;10192942;28;20136;-71
2023/08/08 12:04:04;;;;;;;8.85;7.40;;;;;;;;;;10201023;28;20386;-71
2023/08/08 12:09:36;;;;;;;8.00;6.50;;;;;;;;;;10584021;22;20696;-71
2023/08/08 12:14:36;;;;;;;7.13;6.55;;;;;;;;;;10198520;28;20746;-71
2023/08/08 12:19:47;;;;;;;7.57;6.80;;;;;;;;;;10223486;28;20045;-71
2023/08/08 12:24:46;;;;;;;7.68;5.63;;;;;;;;;;10206702;28;20060;-72
2023/08/08 12:29:42;;;;;;;9.05;5.60;;;;;;;;;;10214078;28;20472;-71
2023/08/08 12:34:38;;;;;;;5.85;5.35;;;;;;;;;;10178890;28;20057;-71
2023/08/08 12:39:34;;;;;;;6.85;4.75;;;;;;;;;;10177047;28;20081;-72
2023/08/08 12:44:31;;;;;;;5.10;4.60;;;;;;;;;;10176695;28;20164;-71
2023/08/08 12:54:32;;;;;;;9.38;5.10;;;;;;;;;;10375089;22;20052;-72
2023/08/08 12:59:28;;;;;;;8.32;5.05;;;;;;;;;;10253258;28;20498;-72
2023/08/08 13:04:25;;;;;;;9.63;5.82;;;;;;;;;;10270226;28;20065;-72
2023/08/08 13:09:21;;;;;;;7.80;5.97;;;;;;;;;;10647827;23;20054;-71
2023/08/08 13:14:17;;;;;;;6.93;5.30;;;;;;;;;;10232534;28;20057;-71
2023/08/08 13:19:16;;;;;;;8.02;6.57;;;;;;;;;;10239300;28;20053;-71
2023/08/08 13:24:20;;;;;;;7.18;6.38;;;;;;;;;;10220740;28;20054;-72
2023/08/08 13:29:17;;;;;;;8.13;5.43;;;;;;;;;;10238907;28;20419;-71
2023/08/08 13:34:13;;;;;;;7.75;5.40;;;;;;;;;;10210435;28;20058;-71
2023/08/08 13:39:10;;;;;;;5.75;5.15;;;;;;;;;;10225181;28;20106;-72
2023/08/08 13:44:06;;;;;;;9.65;5.72;;;;;;;;;;10207401;28;20503;-72
2023/08/08 13:49:02;;;;;;;9.77;5.07;;;;;;;;;;10207799;28;20046;-72
2023/08/08 13:53:58;;;;;;;14.40;5.63;;;;;;;;;;10205972;28;20371;-72
2023/08/08 13:58:55;;;;;;;6.97;5.82;;;;;;;;;;10335613;23;20527;-72
2023/08/08 14:03:51;;;;;;;8.23;5.88;;;;;;;;;;10209137;28;20076;-71
2023/08/08 14:08:48;;;;;;;8.48;6.60;;;;;;;;;;10236768;28;20507;-72
2023/08/08 14:13:44;;;;;;;6.13;5.20;;;;;;;;;;10204081;28;20046;-72
2023/08/08 14:18:40;;;;;;;7.68;5.80;;;;;;;;;;10235985;28;20049;-71
2023/08/08 14:23:37;;;;;;;7.15;5.90;;;;;;;;;;10237756;28;20108;-72
2023/08/08 14:28:33;;;;;;;7.93;5.47;;;;;;;;;;10208215;28;20088;-71
2023/08/08 14:33:29;;;;;;;9.73;5.60;;;;;;;;;;10200491;28;20053;-72
2023/08/08 14:38:26;;;;;;;9.77;6.18;;;;;;;;;;10196964;28;20123;-72
2023/08/08 14:43:23;;;;;;;10.32;6.05;;;;;;;;;;10197827;28;20407;-72
2023/08/08 15:00:35;;;;;;;9.07;4.90;;;;;;;;;;10298355;23;20045;-71
2023/08/08 15:05:31;;;;;;;9.25;4.97;;;;;;;;;;10216401;28;20119;-72
2023/08/08 15:10:28;;;;;;;6.25;4.47;;;;;;;;;;10234681;28;20049;-72
2023/08/08 15:15:27;;;;;;;5.97;4.55;;;;;;;;;;10236529;28;20050;-72
2023/08/08 15:20:23;;;;;;;7.53;4.30;;;;;;;;;;10207858;28;20467;-73
2023/08/08 15:25:20;;;;;;;7.57;4.65;;;;;;;;;;10213675;28;20661;-72
2023/08/08 15:30:16;;;;;;;8.70;5.47;;;;;;;;;;10199641;28;20054;-72
2023/08/08 15:35:12;;;;;;;7.20;5.70;;;;;;;;;;10209860;28;20123;-72
2023/08/08 15:40:09;;;;;;;8.30;6.93;;;;;;;;;;10195466;28;20066;-72
2023/08/08 15:45:07;;;;;;;7.63;6.80;;;;;;;;;;10207837;28;20507;-73
2023/08/08 15:50:04;;;;;;;8.13;6.72;;;;;;;;;;10195128;28;20053;-72
2023/08/08 15:55:00;;;;;;;8.63;6.85;;;;;;;;;;10193612;28;20454;-72
2023/08/08 15:59:58;;;;;;;10.70;7.55;;;;;;;;;;10235443;28;20061;-72
2023/08/08 16:04:56;;;;;;;7.93;7.22;;;;;;;;;;10229318;28;20119;-71
2023/08/08 16:09:53;;;;;;;8.50;7.28;;;;;;;;;;10272333;23;20065;-71
2023/08/08 16:14:49;;;;;;;9.60;8.45;;;;;;;;;;10208419;28;20434;-71
2023/08/08 16:19:46;;;;;;;10.40;6.90;;;;;;;;;;10234514;28;20054;-71
2023/08/08 16:24:42;;;;;;;10.20;6.90;;;;;;;;;;10216899;28;20045;-71
2023/08/08 16:29:39;;;;;;;11.98;7.28;;;;;;;;;;10232706;28;20050;-70
2023/08/08 16:34:36;;;;;;;8.68;7.25;;;;;;;;;;10233842;28;20057;-71
2023/08/08 16:39:32;;;;;;;10.35;6.95;;;;;;;;;;10222158;28;20092;-71
2023/08/08 16:44:28;;;;;;;10.52;6.65;;;;;;;;;;10205462;28;20112;-71
2023/08/08 16:55:03;;;;;;;8.63;7.22;;;;;;;;;;10157290;28;20061;-71
2023/08/08 17:00:01;;;;;;;9.98;7.55;;;;;;;;;;10313304;23;20144;-70
2023/08/08 17:04:57;;;;;;;7.68;6.88;;;;;;;;;;10208610;28;20514;-70
2023/08/08 17:15:25;;;;;;;7.90;6.63;;;;;;;;;;2691516;26;20399;-70
2023/08/08 17:20:22;;;;;;;7.18;6.15;;;;;;;;;;10288393;22;20053;-70
2023/08/08 17:25:18;;;;;;;9.02;6.47;;;;;;;;;;10210673;28;20088;-71
2023/08/08 17:30:14;;;;;;;8.65;5.80;;;;;;;;;;10323234;23;20054;-71
2023/08/08 17:35:10;;;;;;;9.98;6.70;;;;;;;;;;10210279;28;20041;-71
2023/08/08 17:41:03;;;;;;;9.43;6.10;;;;;;;;;;10413727;23;20112;-70
2023/08/08 17:45:59;;;;;;;9.32;5.60;;;;;;;;;;10091031;28;20089;-71
2023/08/08 17:50:56;;;;;;;8.88;5.35;;;;;;;;;;10216885;23;20054;-71
2023/08/08 17:55:52;;;;;;;10.10;5.20;;;;;;;;;;10222562;28;20060;-72
2023/08/08 18:00:49;;;;;;;8.52;6.18;;;;;;;;;;10184844;28;20058;-72
2023/08/08 18:05:45;;;;;;;13.52;5.97;;;;;;;;;;10203351;28;20754;-71
2023/08/08 18:10:42;;;;;;;8.10;5.20;;;;;;;;;;10171875;28;20109;-71
2023/08/08 18:15:38;;;;;;;7.03;5.22;;;;;;;;;;10159474;28;20050;-71
2023/08/08 18:20:34;;;;;;;7.35;5.00;;;;;;;;;;10159112;28;20047;-71
2023/08/08 18:25:30;;;;;;;8.82;4.95;;;;;;;;;;10187038;28;20632;-71
2023/08/08 18:30:27;;;;;;;9.50;5.60;;;;;;;;;;10158357;28;20053;-71
2023/08/08 18:35:23;;;;;;;8.82;4.55;;;;;;;;;;10173928;28;20053;-72
2023/08/08 18:40:20;;;;;;;13.65;5.63;;;;;;;;;;10246440;23;20053;-73
2023/08/08 18:45:17;;;;;;;9.98;5.50;;;;;;;;;;10205954;28;20050;-71
2023/08/08 18:50:13;;;;;;;8.57;4.80;;;;;;;;;;10197891;28;20053;-72
2023/08/08 18:55:10;;;;;;;11.75;5.82;;;;;;;;;;10213005;28;20064;-72
2023/08/08 19:00:07;;;;;;;8.93;4.63;;;;;;;;;;10210132;28;20054;-72
2023/08/08 19:05:06;;;;;;;6.40;4.40;;;;;;;;;;10212209;28;20411;-72
2023/08/08 19:10:02;;;;;;;8.88;5.00;;;;;;;;;;10237150;28;20061;-72
2023/08/08 19:14:59;;;;;;;9.60;5.07;;;;;;;;;;10235386;28;20058;-73
2023/08/08 19:19:55;;;;;;;6.10;4.88;;;;;;;;;;10235937;28;20057;-73
2023/08/08 19:24:52;;;;;;;9.55;4.50;;;;;;;;;;10217177;28;20766;-72
2023/08/08 19:29:48;;;;;;;8.85;5.30;;;;;;;;;;10234992;28;20881;-73
2023/08/08 19:34:45;;;;;;;12.23;5.88;;;;;;;;;;10235755;28;20610;-73
2023/08/08 19:39:41;;;;;;;8.80;4.93;;;;;;;;;;10232441;28;20042;-73
2023/08/08 19:44:37;;;;;;;12.02;5.78;;;;;;;;;;10208249;28;20084;-73
2023/08/08 19:49:34;;;;;;;9.27;5.68;;;;;;;;;;10234882;28;20518;-73
2023/08/08 19:54:30;;;;;;;9.82;5.47;;;;;;;;;;10235172;28;20046;-72
2023/08/08 19:59:26;;;;;;;10.88;5.70;;;;;;;;;;10222779;28;20078;-73
2023/08/08 20:04:23;;;;;;;9.13;6.03;;;;;;;;;;10205631;28;20065;-73
2023/08/08 20:09:19;;;;;;;7.57;6.07;;;;;;;;;;10192137;28;20046;-73
2023/08/08 20:14:15;;;;;;;10.68;5.55;;;;;;;;;;10203652;28;20514;-73
2023/08/08 20:19:12;;;;;;;13.38;6.80;;;;;;;;;;10233977;28;20045;-73
2023/08/08 20:24:12;;;;;;;8.10;5.20;;;;;;;;;;10201741;28;20060;-73
2023/08/08 20:29:08;;;;;;;8.27;5.47;;;;;;;;;;10234078;28;20049;-72
2023/08/08 20:34:05;;;;;;;9.00;5.50;;;;;;;;;;10204108;28;20064;-73
2023/08/08 20:39:02;;;;;;;13.98;6.18;;;;;;;;;;10211758;22;20096;-73
2023/08/08 20:43:58;;;;;;;9.32;6.05;;;;;;;;;;10194025;28;20112;-73
2023/08/08 20:48:55;;;;;;;11.88;6.03;;;;;;;;;;10165842;28;20046;-73
2023/08/08 20:53:52;;;;;;;9.57;6.20;;;;;;;;;;10153829;28;20047;-72
2023/08/08 20:58:49;;;;;;;10.48;6.20;;;;;;;;;;10182994;28;20066;-73
2023/08/08 21:03:45;;;;;;;9.50;6.55;;;;;;;;;;10199031;28;20056;-73
2023/08/08 21:08:44;;;;;;;10.90;5.80;;;;;;;;;;10159278;28;20046;-72
2023/08/08 21:13:42;;;;;;;8.60;6.18;;;;;;;;;;10160792;28;20412;-72
2023/08/08 21:18:38;;;;;;;8.30;5.47;;;;;;;;;;10179043;28;20081;-73
2023/08/08 21:23:34;;;;;;;9.70;6.22;;;;;;;;;;10171324;28;20569;-73
2023/08/08 21:28:31;;;;;;;7.53;5.43;;;;;;;;;;10240062;28;20046;-73
2023/08/08 21:33:27;;;;;;;9.82;6.57;;;;;;;;;;10170958;28;20046;-72
2023/08/08 21:38:23;;;;;;;15.00;6.43;;;;;;;;;;10205554;28;20050;-72
2023/08/08 21:43:22;;;;;;;10.40;6.20;;;;;;;;;;10165285;28;20046;-73
2023/08/08 21:48:18;;;;;;;8.15;5.53;;;;;;;;;;10192351;28;20046;-72
2023/08/08 21:53:14;;;;;;;8.15;5.95;;;;;;;;;;10162140;28;20104;-72
2023/08/08 21:58:10;;;;;;;9.18;5.78;;;;;;;;;;10175836;28;20050;-73
2023/08/08 22:03:07;;;;;;;10.40;5.88;;;;;;;;;;10164842;28;20550;-73
2023/08/08 22:08:03;;;;;;;8.90;5.90;;;;;;;;;;10239373;28;20072;-72
2023/08/08 22:13:00;;;;;;;10.80;6.20;;;;;;;;;;10205489;28;20100;-73
2023/08/08 22:18:10;;;;;;;11.10;6.32;;;;;;;;;;10196758;23;20053;-72
2023/08/08 22:23:33;;;;;;;12.50;5.95;;;;;;;;;;10172489;28;20053;-72
2023/08/08 22:28:30;;;;;;;8.05;5.63;;;;;;;;;;10236726;28;20049;-73
2023/08/08 22:33:28;;;;;;;9.85;6.10;;;;;;;;;;10189159;28;20053;-73
2023/08/08 22:38:25;;;;;;;9.77;5.88;;;;;;;;;;10237173;28;20053;-72
2023/08/08 22:43:21;;;;;;;12.30;5.25;;;;;;;;;;10237915;28;20080;-73
2023/08/08 22:48:17;;;;;;;9.68;5.72;;;;;;;;;;10236217;28;20672;-73
2023/08/08 22:53:13;;;;;;;12.57;5.18;;;;;;;;;;10237296;28;20516;-73
2023/08/08 22:58:11;;;;;;;7.40;4.40;;;;;;;;;;10214166;28;20574;-72
2023/08/08 23:03:07;;;;;;;9.18;5.28;;;;;;;;;;10197176;28;20061;-73
2023/08/08 23:08:04;;;;;;;7.45;4.80;;;;;;;;;;10196591;28;20077;-72
2023/08/08 23:13:01;;;;;;;7.57;6.05;;;;;;;;;;10195391;28;20835;-73
2023/08/08 23:17:57;;;;;;;6.68;4.90;;;;;;;;;;10236120;28;20049;-73
2023/08/08 23:22:53;;;;;;;6.78;5.00;;;;;;;;;;10210744;28;20129;-72
2023/08/08 23:27:49;;;;;;;11.50;5.18;;;;;;;;;;10196066;28;20089;-72
2023/08/08 23:32:46;;;;;;;6.38;5.07;;;;;;;;;;10195261;28;20058;-73
2023/08/08 23:37:50;;;;;;;8.30;5.25;;;;;;;;;;10225358;28;20143;-73
2023/08/08 23:42:46;;;;;;;6.88;4.97;;;;;;;;;;10194913;28;20141;-73
2023/08/08 23:47:42;;;;;;;6.10;4.18;;;;;;;;;;10216618;28;20088;-72
2023/08/08 23:52:39;;;;;;;10.55;4.70;;;;;;;;;;10195495;28;20196;-73
2023/08/08 23:57:35;;;;;;;8.07;5.03;;;;;;;;;;10194930;28;20046;-73
